KAMW/AMW METAR and TAF weather

Enter ICAO airport designator
Station Type Date Time Source
KAMW METAR 2018/01/21 12:13 UTC NOAA

KAMW 211213Z AUTO 03004KT 4SM BR BKN019 OVC030 02/02 A2988 RMK AO2 T00220022


Station Type Date Time Source
KAMW Decoded METAR 2018/01/21 12:13 UTC NOAA

AMES MUNICIPAL AIRPORT, IA, United States (KAMW) 41-59N 93-37W 279M
Jan 21, 2018 - 07:13 AM EST / 2018.01.21 1213 UTC
Wind: from the NNE (030 degrees) at 5 MPH (4 KT):0
Visibility: 4 mile(s):0
Sky conditions: overcast
Weather: mist
Temperature: 36.0 F (2.2 C)
Dew Point: 36.0 F (2.2 C)
Relative Humidity: 100%
Pressure (altimeter): 29.88 in. Hg (1011 hPa)
ob: KAMW 211213Z AUTO 03004KT 4SM BR BKN019 OVC030 02/02 A2988 RMK AO2 T00220022
cycle: 12

Station Type Date Time Source
KAMW TAF UTC NOAA

Error!


Example: see airport list